createdAt,value
2019-05-23T00:01:59.907Z,1.2
2019-05-23T00:04:32.322Z,1.2
2019-05-23T00:07:04.540Z,1.2
2019-05-23T00:09:36.925Z,1.2
2019-05-23T00:12:09.112Z,1.2
2019-05-23T00:14:41.518Z,1.2
2019-05-23T00:17:13.704Z,1.2
2019-05-23T00:19:46.243Z,1.2
2019-05-23T00:22:18.603Z,0
2019-05-23T00:24:50.882Z,0
2019-05-23T00:27:23.040Z,0
2019-05-23T00:29:54.914Z,0
2019-05-23T00:32:26.575Z,0
2019-05-23T00:34:58.379Z,0
2019-05-23T00:37:29.865Z,0
2019-05-23T00:40:01.984Z,0
2019-05-23T00:42:33.575Z,0
2019-05-23T00:45:05.269Z,0
2019-05-23T00:47:36.855Z,0
2019-05-23T00:50:08.605Z,0
2019-05-23T00:52:40.256Z,0
2019-05-23T00:55:11.947Z,2.5
2019-05-23T00:57:43.573Z,2.5
2019-05-23T01:00:15.192Z,2.5
2019-05-23T01:02:46.668Z,2.5
2019-05-23T01:05:18.450Z,2.5
2019-05-23T01:07:50.683Z,2.5
2019-05-23T01:10:22.406Z,2.5
2019-05-23T01:12:53.997Z,2.5
2019-05-23T01:15:25.880Z,1.2
2019-05-23T01:17:57.407Z,1.2
2019-05-23T01:20:29.416Z,1.2
2019-05-23T01:23:01.044Z,1.2
2019-05-23T01:25:33.101Z,1.2
2019-05-23T01:28:04.662Z,1.2
2019-05-23T01:31:26.473Z,1.2
2019-05-23T01:34:00.235Z,0
2019-05-23T01:36:34.265Z,0
2019-05-23T01:39:08.158Z,0
2019-05-23T01:41:42.175Z,1.2
2019-05-23T01:44:15.905Z,0
2019-05-23T01:46:49.734Z,0
2019-05-23T01:49:23.421Z,0
2019-05-23T01:51:57.205Z,0
2019-05-23T01:54:30.918Z,0
2019-05-23T01:57:04.769Z,0
2019-05-23T01:59:38.399Z,0
2019-05-23T02:02:12.358Z,0
2019-05-23T02:04:46.069Z,0
2019-05-23T02:07:19.966Z,0
2019-05-23T02:09:53.671Z,0
2019-05-23T02:12:27.952Z,0
2019-05-23T02:15:00.175Z,0
2019-05-23T02:17:32.579Z,1.2
2019-05-23T02:20:04.654Z,1.2
2019-05-23T02:22:37.056Z,1.2
2019-05-23T02:25:09.286Z,1.2
2019-05-23T02:27:41.627Z,2.5
2019-05-23T02:30:36.897Z,2.5
2019-05-23T02:32:54.883Z,2.5
2019-05-23T02:35:27.046Z,2.5
2019-05-23T02:37:59.479Z,2.5
2019-05-23T02:40:31.744Z,2.5
2019-05-23T02:43:04.185Z,2.5
2019-05-23T02:45:36.365Z,2.5
2019-05-23T02:48:08.975Z,2.5
2019-05-23T02:50:41.150Z,2.5
2019-05-23T02:53:13.732Z,2.5
2019-05-23T02:55:45.896Z,2.5
2019-05-23T02:58:18.533Z,2.5
2019-05-23T03:00:56.393Z,2.5
2019-05-23T03:03:28.678Z,2.5
2019-05-23T03:06:00.857Z,2.5
2019-05-23T03:08:33.213Z,3.7
2019-05-23T03:11:05.592Z,3.7
2019-05-23T03:13:38.311Z,1.2
2019-05-23T03:16:10.563Z,1.2
2019-05-23T03:18:42.834Z,4.9
2019-05-23T03:21:14.997Z,4.9
2019-05-23T03:23:47.340Z,4.9
2019-05-23T03:26:19.541Z,4.9
2019-05-23T03:28:52.310Z,2.5
2019-05-23T03:31:33.954Z,2.5
2019-05-23T03:34:07.850Z,3.7
2019-05-23T03:36:41.698Z,3.7
2019-05-23T03:39:15.779Z,1.2
2019-05-23T03:41:49.651Z,1.2
2019-05-23T03:44:23.893Z,2.5
2019-05-23T03:46:57.653Z,2.5
2019-05-23T03:49:31.606Z,3.7
2019-05-23T03:52:05.543Z,3.7
2019-05-23T03:54:39.334Z,3.7
2019-05-23T03:57:13.038Z,3.7
2019-05-23T03:59:47.380Z,3.7
2019-05-23T04:02:21.225Z,3.7
2019-05-23T04:04:55.063Z,3.7
2019-05-23T04:07:28.785Z,3.7
2019-05-23T04:10:02.804Z,3.7
2019-05-23T04:12:36.533Z,2.5
2019-05-23T04:15:11.045Z,2.5
2019-05-23T04:17:44.740Z,2.5
2019-05-23T04:20:18.518Z,2.5
2019-05-23T04:22:52.141Z,1.2
2019-05-23T04:25:26.094Z,2.5
2019-05-23T04:27:59.826Z,2.5
2019-05-23T04:30:33.788Z,2.5
2019-05-23T04:33:07.382Z,1.2
2019-05-23T04:35:41.295Z,1.2
2019-05-23T04:38:15.044Z,0
2019-05-23T04:40:49.044Z,0
2019-05-23T04:43:22.846Z,0
2019-05-23T04:45:57.201Z,0
2019-05-23T04:48:30.985Z,3.7
2019-05-23T04:51:04.964Z,3.7
2019-05-23T04:53:38.847Z,2.5
2019-05-23T04:56:12.603Z,2.5
2019-05-23T04:58:46.333Z,2.5
2019-05-23T05:01:20.347Z,2.5
2019-05-23T05:03:54.104Z,2.5
2019-05-23T05:06:27.950Z,2.5
2019-05-23T05:09:01.650Z,3.7
2019-05-23T05:11:35.370Z,3.7
2019-05-23T05:14:09.237Z,1.2
2019-05-23T05:16:43.077Z,1.2
2019-05-23T05:19:17.063Z,1.2
2019-05-23T05:21:50.918Z,1.2
2019-05-23T05:24:24.672Z,2.5
2019-05-23T05:26:58.758Z,2.5
2019-05-23T05:29:32.428Z,1.2
2019-05-23T05:31:26.088Z,1.2
2019-05-23T05:33:59.751Z,2.5
2019-05-23T05:36:33.659Z,2.5
2019-05-23T05:39:07.305Z,1.2
2019-05-23T05:41:41.118Z,1.2
2019-05-23T05:44:14.926Z,0
2019-05-23T05:46:48.665Z,0
2019-05-23T05:49:22.419Z,1.2
2019-05-23T05:51:56.039Z,1.2
2019-05-23T05:54:29.939Z,2.5
2019-05-23T05:57:04.014Z,2.5
2019-05-23T05:59:37.913Z,2.5
2019-05-23T06:02:11.612Z,2.5
2019-05-23T06:04:45.454Z,2.5
2019-05-23T06:07:19.527Z,2.5
2019-05-23T06:09:53.614Z,2.5
2019-05-23T06:12:27.524Z,1.2
2019-05-23T06:15:01.324Z,1.2
2019-05-23T06:17:35.112Z,0
2019-05-23T06:20:09.186Z,0
2019-05-23T06:22:42.920Z,0
2019-05-23T06:25:16.876Z,0
2019-05-23T06:27:50.532Z,1.2
2019-05-23T06:30:24.436Z,1.2
2019-05-23T06:32:58.195Z,1.2
2019-05-23T06:35:32.304Z,2.5
2019-05-23T06:38:04.459Z,2.5
2019-05-23T06:40:36.814Z,2.5
2019-05-23T06:43:09.086Z,0
2019-05-23T06:45:41.576Z,0
2019-05-23T06:48:13.701Z,2.5
2019-05-23T06:50:46.012Z,2.5
2019-05-23T06:53:18.148Z,1.2
2019-05-23T06:55:50.654Z,0
2019-05-23T06:58:25.193Z,2.5
2019-05-23T07:00:57.619Z,2.5
2019-05-23T07:03:44.590Z,1.2
2019-05-23T07:06:11.428Z,1.2
2019-05-23T07:08:43.769Z,0
2019-05-23T07:11:16.129Z,0
2019-05-23T07:13:48.332Z,1.2
2019-05-23T07:16:20.610Z,1.2
2019-05-23T07:18:52.911Z,1.2
2019-05-23T07:21:25.471Z,1.2
2019-05-23T07:23:57.737Z,2.5
2019-05-23T07:26:30.092Z,2.5
2019-05-23T07:29:02.441Z,2.5
2019-05-23T07:31:26.937Z,2.5
2019-05-23T07:34:03.326Z,1.2
2019-05-23T07:36:37.009Z,1.2
2019-05-23T07:39:12.567Z,1.2
2019-05-23T07:41:46.476Z,1.2
2019-05-23T07:44:20.379Z,2.5
2019-05-23T07:46:54.303Z,2.5
2019-05-23T07:49:28.134Z,1.2
2019-05-23T07:52:02.058Z,1.2
2019-05-23T07:54:36.000Z,2.5
2019-05-23T07:57:09.682Z,2.5
2019-05-23T07:59:43.580Z,2.5
2019-05-23T08:02:17.339Z,2.5
2019-05-23T08:04:51.342Z,1.2
2019-05-23T08:07:25.611Z,2.5
2019-05-23T08:09:58.150Z,2.5
2019-05-23T08:12:30.376Z,3.7
2019-05-23T08:15:03.057Z,3.7
2019-05-23T08:17:35.352Z,2.5
2019-05-23T08:20:07.705Z,2.5
2019-05-23T08:22:40.035Z,3.7
2019-05-23T08:25:12.733Z,3.7
2019-05-23T08:27:44.958Z,3.7
2019-05-23T08:30:17.369Z,3.7
2019-05-23T08:32:49.577Z,3.7
2019-05-23T08:35:22.295Z,3.7
2019-05-23T08:37:54.743Z,2.5
2019-05-23T08:40:27.089Z,2.5
2019-05-23T08:42:59.279Z,0
2019-05-23T08:45:31.620Z,0
2019-05-23T08:48:03.831Z,4.9
2019-05-23T08:50:36.138Z,4.9
2019-05-23T08:53:08.861Z,2.5
2019-05-23T08:55:41.111Z,2.5
2019-05-23T08:58:16.060Z,2.5
2019-05-23T09:00:48.588Z,2.5
2019-05-23T09:03:21.007Z,3.7
2019-05-23T09:05:53.811Z,2.5
2019-05-23T09:08:26.563Z,2.5
2019-05-23T09:10:59.258Z,2.5
2019-05-23T09:13:31.856Z,1.2
2019-05-23T09:16:04.352Z,1.2
2019-05-23T09:18:36.700Z,2.5
2019-05-23T09:21:09.267Z,2.5
2019-05-23T09:23:41.890Z,3.7
2019-05-23T09:26:14.344Z,3.7
2019-05-23T09:28:46.598Z,3.7
2019-05-23T09:31:26.334Z,3.7
2019-05-23T09:34:00.185Z,2.5
2019-05-23T09:36:34.125Z,2.5
2019-05-23T09:39:08.206Z,3.7
2019-05-23T09:41:42.208Z,3.7
2019-05-23T09:44:16.023Z,3.7
2019-05-23T09:46:50.005Z,3.7
2019-05-23T09:49:23.806Z,2.5
2019-05-23T09:52:02.317Z,2.5
2019-05-23T09:54:36.384Z,4.9
2019-05-23T09:57:10.366Z,4.9
2019-05-23T09:59:44.204Z,4.9
2019-05-23T10:02:18.192Z,4.9
2019-05-23T10:04:52.022Z,4.9
2019-05-23T10:07:25.917Z,3.7
2019-05-23T10:09:59.919Z,3.7
2019-05-23T10:12:33.966Z,3.7
2019-05-23T10:15:07.705Z,2.5
2019-05-23T10:17:41.655Z,3.7
2019-05-23T10:20:15.431Z,3.7
2019-05-23T10:22:49.250Z,1.2
2019-05-23T10:25:23.560Z,3.7
2019-05-23T10:27:57.588Z,3.7
2019-05-23T10:30:31.430Z,3.7
2019-05-23T10:33:14.134Z,4.9
2019-05-23T10:36:01.970Z,2.5
2019-05-23T10:38:30.463Z,3.7
2019-05-23T10:41:04.245Z,3.7
2019-05-23T10:43:38.560Z,4.9
2019-05-23T10:46:12.274Z,6.1
2019-05-23T10:48:46.308Z,0
2019-05-23T10:51:20.086Z,0
2019-05-23T10:53:53.935Z,2.5
2019-05-23T10:56:27.920Z,2.5
2019-05-23T10:59:01.760Z,4.9
2019-05-23T11:01:35.567Z,4.9
2019-05-23T11:04:09.563Z,4.9
2019-05-23T11:06:43.384Z,4.9
2019-05-23T11:09:17.226Z,6.1
2019-05-23T11:11:51.643Z,6.1
2019-05-23T11:14:25.528Z,4.9
2019-05-23T11:16:59.200Z,4.9
2019-05-23T11:19:33.055Z,4.9
2019-05-23T11:22:06.799Z,3.7
2019-05-23T11:24:40.631Z,6.1
2019-05-23T11:27:15.136Z,2.5
2019-05-23T11:29:48.954Z,2.5
2019-05-23T11:31:26.387Z,2.5
2019-05-23T11:34:00.056Z,3.7
2019-05-23T11:36:37.729Z,2.5
2019-05-23T11:39:16.710Z,2.5
2019-05-23T11:41:50.653Z,2.5
2019-05-23T11:44:24.598Z,6.1
2019-05-23T11:46:58.526Z,4.9
2019-05-23T11:49:32.243Z,4.9
2019-05-23T11:52:06.811Z,4.9
2019-05-23T11:54:40.553Z,6.1
2019-05-23T11:57:14.433Z,3.7
2019-05-23T11:59:48.143Z,3.7
2019-05-23T12:02:22.261Z,4.9
2019-05-23T12:04:56.202Z,4.9
2019-05-23T12:07:30.186Z,4.9
2019-05-23T12:10:04.060Z,4.9
2019-05-23T12:12:37.798Z,2.5
2019-05-23T12:15:11.632Z,3.7
2019-05-23T12:17:45.482Z,3.7
2019-05-23T12:20:19.180Z,3.7
2019-05-23T12:22:53.360Z,1.2
2019-05-23T12:25:25.694Z,7.3
2019-05-23T12:27:58.105Z,4.9
2019-05-23T12:30:30.875Z,4.9
2019-05-23T12:33:03.160Z,6.1
2019-05-23T12:35:35.490Z,4.9
2019-05-23T12:38:07.861Z,4.9
2019-05-23T12:40:40.048Z,4.9
2019-05-23T12:43:12.512Z,4.9
2019-05-23T12:45:45.286Z,3.7
2019-05-23T12:48:17.680Z,3.7
2019-05-23T12:50:55.023Z,3.7
2019-05-23T12:53:27.237Z,1.2
2019-05-23T12:55:59.534Z,1.2
2019-05-23T12:58:35.242Z,2.5
2019-05-23T13:01:08.027Z,4.9
2019-05-23T13:03:40.311Z,4.9
2019-05-23T13:06:12.671Z,3.7
2019-05-23T13:08:45.085Z,3.7
2019-05-23T13:11:19.371Z,3.7
2019-05-23T13:13:51.888Z,4.9
2019-05-23T13:16:24.539Z,4.9
2019-05-23T13:18:56.997Z,4.9
2019-05-23T13:21:29.361Z,9.8
2019-05-23T13:24:01.742Z,7.3
2019-05-23T13:26:34.039Z,2.5
2019-05-23T13:29:06.478Z,2.5
2019-05-23T13:31:26.414Z,2.5
2019-05-23T13:34:00.146Z,2.5
2019-05-23T13:36:34.196Z,1.2
2019-05-23T13:39:07.894Z,1.2
2019-05-23T13:41:41.666Z,3.7
2019-05-23T13:44:36.782Z,1.2
2019-05-23T13:46:58.038Z,6.1
2019-05-23T13:49:31.901Z,6.1
2019-05-23T13:52:05.970Z,2.5
2019-05-23T13:54:39.741Z,2.5
2019-05-23T13:57:13.735Z,2.5
2019-05-23T13:59:47.498Z,2.5
2019-05-23T14:02:22.047Z,2.5
2019-05-23T14:04:55.956Z,3.7
2019-05-23T14:07:29.789Z,2.5
2019-05-23T14:10:03.704Z,2.5
2019-05-23T14:12:37.502Z,2.5
2019-05-23T14:15:11.280Z,2.5
2019-05-23T14:17:45.525Z,2.5
2019-05-23T14:20:19.273Z,2.5
2019-05-23T14:22:53.190Z,2.5
2019-05-23T14:25:27.096Z,3.7
2019-05-23T14:28:01.193Z,3.7
2019-05-23T14:30:35.015Z,2.5
2019-05-23T14:33:09.480Z,2.5
2019-05-23T14:35:43.314Z,6.1
2019-05-23T14:38:32.049Z,6.1
2019-05-23T14:40:59.596Z,4.9
2019-05-23T14:43:34.143Z,4.9
2019-05-23T14:46:07.933Z,3.7
2019-05-23T14:48:41.815Z,3.7
2019-05-23T14:51:15.604Z,2.5
2019-05-23T14:53:49.622Z,2.5
2019-05-23T14:56:23.524Z,6.1
2019-05-23T14:58:57.517Z,6.1
2019-05-23T15:01:31.265Z,7.3
2019-05-23T15:04:05.757Z,4.9
2019-05-23T15:06:39.539Z,2.5
2019-05-23T15:09:13.768Z,2.5
2019-05-23T15:11:46.015Z,3.7
2019-05-23T15:14:18.363Z,1.2
2019-05-23T15:16:50.484Z,3.7
2019-05-23T15:19:45.982Z,3.7
2019-05-23T15:22:03.655Z,1.2
2019-05-23T15:24:36.005Z,2.5
2019-05-23T15:27:08.321Z,2.5
2019-05-23T15:29:40.690Z,2.5
2019-05-23T15:31:26.278Z,2.5
2019-05-23T15:34:00.080Z,2.5
2019-05-23T15:36:33.965Z,4.9
2019-05-23T15:39:11.530Z,4.9
2019-05-23T15:41:45.348Z,1.2
2019-05-23T15:44:31.317Z,2.5
2019-05-23T15:47:01.824Z,2.5
2019-05-23T15:49:35.646Z,2.5
2019-05-23T15:52:09.470Z,1.2
2019-05-23T15:54:43.240Z,1.2
2019-05-23T15:57:17.038Z,2.5
2019-05-23T15:59:51.113Z,2.5
2019-05-23T16:02:24.919Z,2.5
2019-05-23T16:04:58.773Z,1.2
2019-05-23T16:07:32.736Z,4.9
2019-05-23T16:10:06.509Z,2.5
2019-05-23T16:12:40.292Z,2.5
2019-05-23T16:15:14.298Z,4.9
2019-05-23T16:17:48.179Z,4.9
2019-05-23T16:20:22.270Z,1.2
2019-05-23T16:22:56.147Z,1.2
2019-05-23T16:25:29.914Z,1.2
2019-05-23T16:28:04.218Z,1.2
2019-05-23T16:30:38.013Z,4.9
2019-05-23T16:33:11.929Z,4.9
2019-05-23T16:35:45.679Z,3.7
2019-05-23T16:38:20.023Z,3.7
2019-05-23T16:40:53.743Z,1.2
2019-05-23T16:43:27.794Z,1.2
2019-05-23T16:46:01.558Z,1.2
2019-05-23T16:48:35.618Z,1.2
2019-05-23T16:51:09.402Z,0
2019-05-23T16:53:43.768Z,0
2019-05-23T16:56:18.124Z,1.2
2019-05-23T16:58:52.460Z,1.2
2019-05-23T17:01:25.550Z,4.9
2019-05-23T17:03:58.705Z,4.9
2019-05-23T17:06:30.992Z,3.7
2019-05-23T17:09:03.793Z,3.7
2019-05-23T17:11:35.982Z,1.2
2019-05-23T17:14:08.699Z,3.7
2019-05-23T17:16:41.023Z,3.7
2019-05-23T17:19:13.478Z,3.7
2019-05-23T17:21:46.030Z,4.9
2019-05-23T17:24:18.567Z,2.5
2019-05-23T17:26:50.748Z,4.9
2019-05-23T17:29:22.631Z,4.9
2019-05-23T17:31:26.644Z,4.9
2019-05-23T17:34:00.595Z,4.9
2019-05-23T17:36:34.511Z,3.7
2019-05-23T17:39:08.436Z,3.7
2019-05-23T17:41:42.137Z,2.5
2019-05-23T17:44:16.060Z,3.7
2019-05-23T17:46:49.877Z,3.7
2019-05-23T17:49:23.567Z,3.7
2019-05-23T17:51:57.601Z,3.7
2019-05-23T17:54:31.654Z,1.2
2019-05-23T17:57:05.667Z,1.2
2019-05-23T17:59:39.351Z,1.2
2019-05-23T18:02:13.298Z,2.5
2019-05-23T18:04:47.345Z,1.2
2019-05-23T18:07:21.360Z,1.2
2019-05-23T18:09:55.211Z,1.2
2019-05-23T18:12:29.451Z,1.2
2019-05-23T18:15:01.572Z,2.5
2019-05-23T18:17:34.053Z,2.5
2019-05-23T18:20:06.239Z,2.5
2019-05-23T18:22:38.561Z,2.5
2019-05-23T18:25:10.844Z,2.5
2019-05-23T18:27:43.634Z,2.5
2019-05-23T18:30:15.865Z,2.5
2019-05-23T18:32:48.337Z,2.5
2019-05-23T18:35:21.566Z,2.5
2019-05-23T18:37:53.725Z,2.5
2019-05-23T18:40:25.561Z,3.7
2019-05-23T18:42:57.421Z,3.7
2019-05-23T18:45:28.972Z,3.7
2019-05-23T18:48:00.861Z,3.7
2019-05-23T18:50:32.414Z,3.7
2019-05-23T18:53:04.119Z,3.7
2019-05-23T18:55:35.696Z,1.2
2019-05-23T18:58:07.542Z,1.2
2019-05-23T19:00:39.047Z,1.2
2019-05-23T19:03:11.043Z,1.2
2019-05-23T19:05:42.933Z,1.2
2019-05-23T19:08:14.760Z,1.2
2019-05-23T19:10:46.378Z,1.2
2019-05-23T19:13:19.112Z,1.2
2019-05-23T19:15:50.701Z,1.2
2019-05-23T19:18:22.350Z,1.2
2019-05-23T19:20:55.889Z,0
2019-05-23T19:23:27.649Z,0
2019-05-23T19:25:59.239Z,2.5
2019-05-23T19:28:31.509Z,2.5
2019-05-23T19:31:25.898Z,1.2
2019-05-23T19:33:59.885Z,1.2
2019-05-23T19:36:33.692Z,1.2
2019-05-23T19:39:07.630Z,1.2
2019-05-23T19:41:41.335Z,1.2
2019-05-23T19:44:15.647Z,0
2019-05-23T19:46:49.395Z,0
2019-05-23T19:49:27.570Z,1.2
2019-05-23T19:51:59.793Z,1.2
2019-05-23T19:54:32.213Z,0
2019-05-23T19:57:04.398Z,0
2019-05-23T19:59:36.846Z,1.2
2019-05-23T20:02:09.041Z,1.2
2019-05-23T20:04:41.435Z,1.2
2019-05-23T20:07:16.364Z,1.2
2019-05-23T20:09:48.713Z,1.2
2019-05-23T20:12:20.894Z,1.2
2019-05-23T20:14:53.133Z,0
2019-05-23T20:17:25.310Z,2.5
2019-05-23T20:19:58.006Z,2.5
2019-05-23T20:22:30.228Z,1.2
2019-05-23T20:25:02.884Z,2.5
2019-05-23T20:27:35.264Z,0
2019-05-23T20:30:10.347Z,0
2019-05-23T20:32:42.648Z,1.2
2019-05-23T20:35:15.140Z,0
2019-05-23T20:37:47.625Z,0
2019-05-23T20:40:20.448Z,0
2019-05-23T20:42:53.167Z,1.2
2019-05-23T20:45:26.052Z,0
2019-05-23T20:47:58.245Z,0
2019-05-23T20:50:30.585Z,0
2019-05-23T20:53:02.870Z,0
2019-05-23T20:55:35.607Z,0
2019-05-23T20:58:07.918Z,0
2019-05-23T21:00:40.395Z,0
2019-05-23T21:03:12.689Z,0
2019-05-23T21:05:45.018Z,0
2019-05-23T21:08:18.133Z,1.2
2019-05-23T21:10:55.093Z,1.2
2019-05-23T21:13:29.856Z,1.2
2019-05-23T21:16:03.611Z,1.2
2019-05-23T21:18:37.459Z,1.2
2019-05-23T21:21:11.744Z,1.2
2019-05-23T21:23:43.998Z,1.2
2019-05-23T21:26:17.617Z,0
2019-05-23T21:28:49.879Z,0
2019-05-23T21:31:27.035Z,0
2019-05-23T21:34:00.738Z,0
2019-05-23T21:36:34.629Z,0
2019-05-23T21:39:08.355Z,0
2019-05-23T21:41:42.177Z,0
2019-05-23T21:44:16.019Z,1.2
2019-05-23T21:46:49.871Z,1.2
2019-05-23T21:49:23.524Z,1.2
2019-05-23T21:51:57.487Z,1.2
2019-05-23T21:54:31.122Z,0
2019-05-23T21:57:05.142Z,0
2019-05-23T21:59:39.197Z,0
2019-05-23T22:02:13.757Z,0
2019-05-23T22:04:48.176Z,0
2019-05-23T22:07:22.100Z,0
2019-05-23T22:09:55.960Z,0
2019-05-23T22:12:32.420Z,0
2019-05-23T22:15:06.271Z,0
2019-05-23T22:17:40.314Z,0
2019-05-23T22:20:14.140Z,0
2019-05-23T22:22:50.513Z,0
2019-05-23T22:25:24.280Z,0
2019-05-23T22:27:58.261Z,1.2
2019-05-23T22:30:31.992Z,1.2
2019-05-23T22:33:05.784Z,1.2
2019-05-23T22:35:39.443Z,1.2
2019-05-23T22:38:13.444Z,1.2
2019-05-23T22:40:47.044Z,1.2
2019-05-23T22:43:22.204Z,1.2
2019-05-23T22:45:55.834Z,0
2019-05-23T22:48:29.798Z,1.2
2019-05-23T22:51:03.523Z,1.2
2019-05-23T22:53:37.462Z,1.2
2019-05-23T22:56:11.133Z,1.2
2019-05-23T22:58:44.814Z,1.2
2019-05-23T23:01:18.537Z,1.2
2019-05-23T23:03:55.336Z,1.2
2019-05-23T23:06:29.013Z,1.2
2019-05-23T23:09:03.010Z,1.2
2019-05-23T23:11:36.680Z,1.2
2019-05-23T23:14:10.659Z,1.2
2019-05-23T23:16:44.385Z,0
2019-05-23T23:19:18.586Z,0
2019-05-23T23:21:50.927Z,1.2
2019-05-23T23:24:23.367Z,1.2
2019-05-23T23:26:55.616Z,1.2
2019-05-23T23:29:27.982Z,1.2
2019-05-23T23:31:26.778Z,0
2019-05-23T23:34:00.574Z,0
2019-05-23T23:36:34.355Z,1.2
2019-05-23T23:39:08.029Z,1.2
2019-05-23T23:41:41.720Z,0
2019-05-23T23:44:15.430Z,0
2019-05-23T23:46:49.155Z,0
2019-05-23T23:49:22.819Z,0
2019-05-23T23:51:56.686Z,1.2
2019-05-23T23:54:30.401Z,1.2
2019-05-23T23:57:04.402Z,1.2
2019-05-23T23:59:38.226Z,1.2
